CheckWX is a tool to help pilots better visualize weather data.  It is not intended as a substitute for an official pre-flight weather briefing.

22:44:56 UTC

CYEG TAF
Edmonton International Airport
Edmonton, Canada
TAF CYEG 212039Z 2121/2218 VRB03KT P6SM SCT220 BECMG 2122/2124 13008KT FM220300 13010KT P6SM SCT060 BKN100 BKN200 FM220600 12010KT P6SM -SN BKN060 OVC100 FM220900 29005KT 2SM -SN VV015 FM221300 32008KT 1SM -SN VV008 RMK NXT FCST BY 220000Z

Jan-21@
21:00 UTC

Jan-21 @ 21:00 UTC

Jan-21@
22:00 UTC

Jan-21 @ 22:00 UTC

TAF CYEG 212039Z 2121/2218 VRB03KT P6SM SCT220

Expired

Wind
  • Variable at 3 KTS
Cloud Levels
  • Scattered at 22,000' AGL

Jan-21@
22:00 UTC

Jan-21 @ 22:00 UTC

Jan-22@
03:00 UTC

Jan-22 @ 03:00 UTC

BECMG 2122/2124 13008KT

Becoming

Becoming Conditions expected by Wed, Jan 22, 2020 @ 00:00 UTC

Wind
  • 130° at 8 KTS
Cloud Levels
  • Scattered at 22,000' AGL

Jan-22@
03:00 UTC

Jan-22 @ 03:00 UTC

Jan-22@
06:00 UTC

Jan-22 @ 06:00 UTC

FM220300 13010KT P6SM SCT060 BKN100 BKN200

From

From Standard forecast or significant change

Wind
  • 130° at 10 KTS
Cloud Levels
  • Scattered at 6,000' AGL
  • Broken at 10,000' AGL
  • Broken at 20,000' AGL

Jan-22@
06:00 UTC

Jan-22 @ 06:00 UTC

Jan-22@
09:00 UTC

Jan-22 @ 09:00 UTC

FM220600 12010KT P6SM -SN BKN060 OVC100

From

From Standard forecast or significant change

Wind
  • 120° at 10 KTS
Conditions
Light Snow
Cloud Levels
  • Broken at 6,000' AGL
  • Overcast at 10,000' AGL

Jan-22@
09:00 UTC

Jan-22 @ 09:00 UTC

Jan-22@
13:00 UTC

Jan-22 @ 13:00 UTC

FM220900 29005KT 2SM -SN VV015

From

From Standard forecast or significant change

Wind
  • 290° at 5 KTS
Conditions
Light Snow
Cloud Levels
  • Vertical visibility at 1,500' AGL

Jan-22@
13:00 UTC

Jan-22 @ 13:00 UTC

Jan-22@
18:00 UTC

Jan-22 @ 18:00 UTC

FM221300 32008KT 1SM -SN VV008 RMK NXT FCST BY 220000Z

From

From Standard forecast or significant change

Wind
  • 320° at 8 KTS
Conditions
Light Snow
Cloud Levels
  • Vertical visibility at 800' AGL